createdAt,value
2018-03-08T00:01:52.810Z,100086.34
2018-03-08T00:04:19.584Z,100095.13
2018-03-08T00:06:46.450Z,100089.95
2018-03-08T00:09:13.563Z,100097.78
2018-03-08T00:11:40.438Z,100097.64
2018-03-08T00:14:08.078Z,100097.89
2018-03-08T00:16:34.932Z,100095.74
2018-03-08T00:19:01.317Z,100095.31
2018-03-08T00:21:28.116Z,100096.84
2018-03-08T00:23:55.167Z,100099.42
2018-03-08T00:26:21.852Z,100099.70
2018-03-08T00:28:48.786Z,100100.60
2018-03-08T00:31:15.897Z,100102.78
2018-03-08T00:33:42.772Z,100101.92
2018-03-08T00:36:09.916Z,100101.59
2018-03-08T00:38:36.329Z,100108.21
2018-03-08T00:41:03.600Z,100106.13
2018-03-08T00:43:30.454Z,100111.28
2018-03-08T00:45:57.680Z,100107.38
2018-03-08T00:48:24.778Z,100109.16
2018-03-08T00:50:51.913Z,100107.77
2018-03-08T00:53:18.580Z,100112.52
2018-03-08T00:55:45.743Z,100112.45
2018-03-08T00:58:12.537Z,100107.77
2018-03-08T01:00:39.836Z,100113.12
2018-03-08T01:03:07.182Z,100115.29
2018-03-08T01:05:34.442Z,100116.53
2018-03-08T01:08:01.109Z,100113.68
2018-03-08T01:10:28.645Z,100118.18
2018-03-08T01:12:55.639Z,100119.11
2018-03-08T01:15:22.800Z,100111.42
2018-03-08T01:17:49.424Z,100117.12
2018-03-08T01:20:16.766Z,100112.20
2018-03-08T01:22:43.801Z,100115.27
2018-03-08T01:25:10.974Z,100111.02
2018-03-08T01:27:37.904Z,100113.88
2018-03-08T01:30:04.972Z,100117.26
2018-03-08T01:32:31.335Z,100114.61
2018-03-08T01:34:58.853Z,100118.58
2018-03-08T01:37:25.919Z,100111.82
2018-03-08T01:39:52.971Z,100117.11
2018-03-08T01:42:19.945Z,100112.16
2018-03-08T01:44:46.494Z,100111.75
2018-03-08T01:47:13.604Z,100108.06
2018-03-08T01:49:40.447Z,100111.37
2018-03-08T01:52:10.878Z,100113.66
2018-03-08T01:54:37.280Z,100111.31
2018-03-08T01:57:04.546Z,100109.77
2018-03-08T01:59:30.917Z,100110.70
2018-03-08T02:01:57.780Z,100108.44
2018-03-08T02:04:24.676Z,100103.30
2018-03-08T02:06:51.588Z,100108.93
2018-03-08T02:09:17.955Z,100109.53
2018-03-08T02:11:45.071Z,100113.30
2018-03-08T02:14:11.579Z,100118.30
2018-03-08T02:16:38.669Z,100107.59
2018-03-08T02:19:05.624Z,100110.66
2018-03-08T02:21:32.740Z,100077.70
2018-03-08T02:23:59.624Z,100113.92
2018-03-08T02:26:26.668Z,100121.48
2018-03-08T02:28:53.038Z,100117.15
2018-03-08T02:31:20.577Z,100109.45
2018-03-08T02:33:47.608Z,100111.28
2018-03-08T02:36:14.598Z,100111.47
2018-03-08T02:38:41.535Z,100108.25
2018-03-08T02:41:07.918Z,100098.41
2018-03-08T02:43:34.950Z,100099.01
2018-03-08T02:46:02.596Z,100103.48
2018-03-08T02:48:29.352Z,100110.60
2018-03-08T02:50:56.283Z,100108.88
2018-03-08T02:53:23.129Z,100113.47
2018-03-08T02:55:50.249Z,100103.47
2018-03-08T02:58:17.237Z,100103.17
2018-03-08T03:00:44.190Z,100102.68
2018-03-08T03:03:10.608Z,100111.77
2018-03-08T03:05:38.075Z,100110.92
2018-03-08T03:08:05.030Z,100113.79
2018-03-08T03:10:31.829Z,100105.08
2018-03-08T03:12:58.442Z,100105.14
2018-03-08T03:15:25.671Z,100112.11
2018-03-08T03:17:52.653Z,100103.73
2018-03-08T03:20:19.580Z,100097.99
2018-03-08T03:22:46.623Z,100090.21
2018-03-08T03:25:13.719Z,100098.45
2018-03-08T03:27:41.249Z,100101.69
2018-03-08T03:30:07.657Z,100098.75
2018-03-08T03:32:34.620Z,100098.39
2018-03-08T03:35:01.647Z,100090.67
2018-03-08T03:37:28.458Z,100097.36
2018-03-08T03:39:55.591Z,100094.86
2018-03-08T03:42:22.468Z,100098.66
2018-03-08T03:44:49.578Z,100100.95
2018-03-08T03:47:16.548Z,100102.47
2018-03-08T03:49:43.341Z,100104.06
2018-03-08T03:52:10.356Z,100097.19
2018-03-08T03:54:37.345Z,100095.94
2018-03-08T03:57:04.343Z,100097.33
2018-03-08T03:59:31.393Z,100106.34
2018-03-08T04:01:57.780Z,100106.55
2018-03-08T04:04:25.624Z,100106.68
2018-03-08T04:06:52.649Z,100101.04
2018-03-08T04:09:19.016Z,100104.11
2018-03-08T04:11:46.048Z,100094.73
2018-03-08T04:14:13.020Z,100099.19
2018-03-08T04:16:39.655Z,100100.02
2018-03-08T04:19:06.405Z,100102.81
2018-03-08T04:21:33.632Z,100102.95
2018-03-08T04:24:00.736Z,100107.21
2018-03-08T04:26:28.204Z,100099.46
2018-03-08T04:28:55.762Z,100103.25
2018-03-08T04:31:23.393Z,100096.69
2018-03-08T04:33:50.264Z,100102.23
2018-03-08T04:36:17.830Z,100102.79
2018-03-08T04:38:44.709Z,100105.17
2018-03-08T04:41:11.608Z,100099.02
2018-03-08T04:43:38.456Z,100097.84
2018-03-08T04:46:04.820Z,100087.33
2018-03-08T04:48:32.292Z,100087.18
2018-03-08T04:50:59.117Z,100079.62
2018-03-08T04:53:25.480Z,100083.89
2018-03-08T04:55:52.372Z,100082.87
2018-03-08T04:58:19.177Z,100076.05
2018-03-08T05:00:46.077Z,100078.84
2018-03-08T05:03:12.460Z,100074.06
2018-03-08T05:05:40.076Z,100079.95
2018-03-08T05:08:06.459Z,100076.92
2018-03-08T05:10:34.176Z,100066.81
2018-03-08T05:13:01.060Z,100065.24
2018-03-08T05:15:27.912Z,100064.69
2018-03-08T05:17:55.449Z,100061.37
2018-03-08T05:20:21.815Z,100063.06
2018-03-08T05:22:49.448Z,100058.57
2018-03-08T05:25:16.407Z,100060.13
2018-03-08T05:27:42.849Z,100057.93
2018-03-08T05:30:09.223Z,100061.19
2018-03-08T05:32:36.329Z,100052.12
2018-03-08T05:35:03.488Z,100048.02
2018-03-08T05:37:30.368Z,100053.63
2018-03-08T05:39:57.995Z,100056.54
2018-03-08T05:42:24.896Z,100048.94
2018-03-08T05:44:51.271Z,100049.12
2018-03-08T05:47:18.455Z,100044.77
2018-03-08T05:49:45.625Z,100035.17
2018-03-08T05:52:12.729Z,100046.45
2018-03-08T05:54:39.358Z,100041.41
2018-03-08T05:57:06.884Z,100051.91
2018-03-08T05:59:34.018Z,100048.47
2018-03-08T06:02:01.365Z,100043.40
2018-03-08T06:04:28.641Z,100044.36
2018-03-08T06:06:55.302Z,100043.87
2018-03-08T06:09:22.632Z,100045.79
2018-03-08T06:11:49.585Z,100043.41
2018-03-08T06:14:16.939Z,100039.71
2018-03-08T06:16:43.699Z,100041.98
2018-03-08T06:19:10.058Z,100030.70
2018-03-08T06:21:36.849Z,100032.23
2018-03-08T06:24:03.225Z,100029.50
2018-03-08T06:26:29.604Z,100024.45
2018-03-08T06:28:56.242Z,100021.88
2018-03-08T06:31:22.614Z,100014.33
2018-03-08T06:33:49.022Z,100014.24
2018-03-08T06:36:15.812Z,100018.67
2018-03-08T06:38:42.641Z,100023.45
2018-03-08T06:41:09.963Z,100010.16
2018-03-08T06:43:37.067Z,100012.73
2018-03-08T06:46:04.229Z,100008.88
2018-03-08T06:48:30.782Z,100010.60
2018-03-08T06:50:57.963Z,100008.23
2018-03-08T06:53:25.093Z,99995.28
2018-03-08T06:55:52.529Z,99980.86
2018-03-08T06:58:19.183Z,99972.95
2018-03-08T07:00:45.544Z,99969.05
2018-03-08T07:03:12.641Z,99975.69
2018-03-08T07:05:39.512Z,99977.30
2018-03-08T07:08:06.357Z,99967.41
2018-03-08T07:10:33.147Z,99974.52
2018-03-08T07:13:00.589Z,99966.59
2018-03-08T07:15:27.137Z,99971.82
2018-03-08T07:17:53.926Z,99969.03
2018-03-08T07:20:21.334Z,99968.93
2018-03-08T07:22:47.737Z,99966.73
2018-03-08T07:25:15.125Z,99954.23
2018-03-08T07:27:41.552Z,99963.09
2018-03-08T07:30:08.870Z,99957.19
2018-03-08T07:32:35.523Z,99958.86
2018-03-08T07:35:02.350Z,99964.45
2018-03-08T07:37:29.668Z,99967.48
2018-03-08T07:39:56.586Z,99962.70
2018-03-08T07:42:23.503Z,99955.52
2018-03-08T07:44:50.656Z,99956.89
2018-03-08T07:47:18.384Z,99945.88
2018-03-08T07:49:45.443Z,99950.63
2018-03-08T07:52:11.840Z,99950.44
2018-03-08T07:54:38.625Z,99953.72
2018-03-08T07:57:04.993Z,99956.64
2018-03-08T07:59:32.034Z,99953.20
2018-03-08T08:01:59.008Z,99949.24
2018-03-08T08:04:45.673Z,99941.61
2018-03-08T08:07:30.438Z,99942.06
2018-03-08T08:09:57.666Z,99952.03
2018-03-08T08:12:24.506Z,99944.47
2018-03-08T08:14:51.311Z,99946.33
2018-03-08T08:17:18.636Z,99930.27
2018-03-08T08:19:45.184Z,99940.46
2018-03-08T08:22:11.977Z,99930.77
2018-03-08T08:24:38.871Z,99932.17
2018-03-08T08:27:06.132Z,99940.81
2018-03-08T08:29:32.792Z,99925.09
2018-03-08T08:31:59.510Z,99931.23
2018-03-08T08:34:26.376Z,99933.48
2018-03-08T08:36:53.767Z,99922.61
2018-03-08T08:39:21.388Z,99925.02
2018-03-08T08:41:48.187Z,99924.09
2018-03-08T08:44:15.308Z,99920.74
2018-03-08T08:46:41.724Z,99914.48
2018-03-08T08:49:08.583Z,99922.05
2018-03-08T08:51:35.285Z,99911.26
2018-03-08T08:54:02.269Z,99914.33
2018-03-08T08:56:29.106Z,99911.69
2018-03-08T08:58:55.884Z,99911.22
2018-03-08T09:01:22.621Z,99911.80
2018-03-08T09:03:49.533Z,99914.42
2018-03-08T09:06:16.780Z,99918.47
2018-03-08T09:08:43.578Z,99914.66
2018-03-08T09:11:10.490Z,99905.69
2018-03-08T09:13:37.343Z,99911.06
2018-03-08T09:16:03.722Z,99908.15
2018-03-08T09:18:31.227Z,99902.11
2018-03-08T09:20:58.119Z,99898.91
2018-03-08T09:23:24.717Z,99891.81
2018-03-08T09:25:51.096Z,99878.30
2018-03-08T09:28:18.368Z,99873.08
2018-03-08T09:30:44.792Z,99877.64
2018-03-08T09:33:11.743Z,99872.30
2018-03-08T09:35:38.120Z,99872.69
2018-03-08T09:38:05.235Z,99875.41
2018-03-08T09:40:31.774Z,99877.09
2018-03-08T09:42:58.153Z,99873.51
2018-03-08T09:45:25.269Z,99871.13
2018-03-08T09:47:51.916Z,99881.57
2018-03-08T09:50:18.280Z,99883.20
2018-03-08T09:52:45.755Z,99888.34
2018-03-08T09:55:12.972Z,99894.58
2018-03-08T09:57:39.352Z,99890.92
2018-03-08T10:00:06.472Z,99903.90
2018-03-08T10:02:32.937Z,99899.88
2018-03-08T10:05:00.061Z,99894.66
2018-03-08T10:07:26.436Z,99890.80
2018-03-08T10:10:00.815Z,99885.31
2018-03-08T10:12:27.773Z,99885.97
2018-03-08T10:14:55.618Z,99882.54
2018-03-08T10:17:22.033Z,99890.26
2018-03-08T10:19:48.856Z,99882.58
2018-03-08T10:22:15.952Z,99877.05
2018-03-08T10:24:42.359Z,99880.95
2018-03-08T10:27:08.960Z,99871.44
2018-03-08T10:29:35.357Z,99869.33
2018-03-08T10:32:01.748Z,99867.28
2018-03-08T10:34:28.785Z,99871.62
2018-03-08T10:36:56.260Z,99860.39
2018-03-08T10:41:50.371Z,99854.77
2018-03-08T10:44:18.213Z,99849.80
2018-03-08T10:46:44.664Z,99857.87
2018-03-08T10:49:11.115Z,99855.86
2018-03-08T10:51:38.136Z,99855.69
2018-03-08T10:54:05.126Z,99849.95
2018-03-08T10:56:32.051Z,99844.02
2018-03-08T10:58:59.012Z,99835.38
2018-03-08T11:01:25.854Z,99843.50
2018-03-08T11:03:54.810Z,99843.84
2018-03-08T11:06:27.685Z,99841.44
2018-03-08T11:08:54.052Z,99842.37
2018-03-08T11:11:20.441Z,99839.13
2018-03-08T11:13:47.869Z,99842.45
2018-03-08T11:16:14.787Z,99836.14
2018-03-08T11:18:41.659Z,99833.75
2018-03-08T11:21:08.609Z,99839.33
2018-03-08T11:23:35.502Z,99840.67
2018-03-08T11:26:02.360Z,99837.25
2018-03-08T11:28:29.144Z,99837.42
2018-03-08T11:30:55.637Z,99833.85
2018-03-08T11:33:22.784Z,99838.09
2018-03-08T11:35:50.343Z,99835.04
2018-03-08T11:38:17.164Z,99819.64
2018-03-08T11:40:43.531Z,99829.17
2018-03-08T11:43:10.497Z,99834.39
2018-03-08T11:45:37.503Z,99842.79
2018-03-08T11:48:03.904Z,99834.98
2018-03-08T11:50:31.104Z,99824.93
2018-03-08T11:52:57.648Z,99826.75
2018-03-08T11:55:24.857Z,99814.95
2018-03-08T11:57:51.492Z,99821.56
2018-03-08T12:00:18.906Z,99819.13
2018-03-08T12:02:45.968Z,99813.59
2018-03-08T12:05:13.727Z,99813.17
2018-03-08T12:07:40.252Z,99811.84
2018-03-08T12:10:06.908Z,99808.48
2018-03-08T12:12:33.804Z,99800.44
2018-03-08T12:15:00.649Z,99795.53
2018-03-08T12:17:27.753Z,99792.86
2018-03-08T12:19:54.701Z,99784.34
2018-03-08T12:22:21.085Z,99784.17
2018-03-08T12:24:48.648Z,99783.09
2018-03-08T12:27:16.209Z,99775.44
2018-03-08T12:29:43.836Z,99782.09
2018-03-08T12:32:10.627Z,99792.98
2018-03-08T12:34:37.725Z,99789.51
2018-03-08T12:37:04.505Z,99795.80
2018-03-08T12:39:31.857Z,99782.34
2018-03-08T12:41:58.230Z,99787.27
2018-03-08T12:44:24.601Z,99792.23
2018-03-08T12:46:51.122Z,99790.64
2018-03-08T12:49:17.484Z,99779.34
2018-03-08T12:51:44.213Z,99785.59
2018-03-08T12:54:11.875Z,99776.62
2018-03-08T12:56:38.377Z,99778.92
2018-03-08T12:59:05.530Z,99799.33
2018-03-08T13:01:32.694Z,99790.70
2018-03-08T13:04:00.269Z,99783.30
2018-03-08T13:06:27.899Z,99778.16
2018-03-08T13:08:54.264Z,99774.92
2018-03-08T13:11:21.421Z,99765.92
2018-03-08T13:13:48.844Z,99767.67
2018-03-08T13:16:15.767Z,99769.52
2018-03-08T13:18:42.270Z,99775.91
2018-03-08T13:21:09.859Z,99776.34
2018-03-08T13:23:36.231Z,99772.44
2018-03-08T13:26:02.725Z,99772.36
2018-03-08T13:28:30.464Z,99757.41
2018-03-08T13:30:57.143Z,99753.44
2018-03-08T13:33:24.268Z,99748.05
2018-03-08T13:35:51.174Z,99747.54
2018-03-08T13:38:17.977Z,99757.17
2018-03-08T13:40:45.640Z,99746.81
2018-03-08T13:43:12.751Z,99747.46
2018-03-08T13:45:39.145Z,99738.84
2018-03-08T13:48:06.705Z,99731.87
2018-03-08T13:50:33.809Z,99736.92
2018-03-08T13:53:00.185Z,99744.50
2018-03-08T13:55:27.518Z,99747.16
2018-03-08T13:57:53.879Z,99735.12
2018-03-08T14:00:21.019Z,99740.00
2018-03-08T14:02:47.774Z,99742.09
2018-03-08T14:05:14.683Z,99742.83
2018-03-08T14:07:41.609Z,99749.97
2018-03-08T14:10:08.805Z,99749.90
2018-03-08T14:12:35.728Z,99746.13
2018-03-08T14:15:02.893Z,99744.33
2018-03-08T14:17:30.066Z,99741.66
2018-03-08T14:19:57.360Z,99735.45
2018-03-08T14:22:24.918Z,99739.83
2018-03-08T14:24:52.416Z,99740.34
2018-03-08T14:27:19.312Z,99734.86
2018-03-08T14:29:46.360Z,99736.78
2018-03-08T14:32:13.257Z,99732.20
2018-03-08T14:34:40.050Z,99740.34
2018-03-08T14:37:06.948Z,99743.09
2018-03-08T14:39:33.794Z,99745.32
2018-03-08T14:42:00.649Z,99739.20
2018-03-08T14:44:27.646Z,99737.02
2018-03-08T14:46:54.640Z,99739.12
2018-03-08T14:49:22.263Z,99751.55
2018-03-08T14:51:48.641Z,99747.52
2018-03-08T14:54:16.292Z,99740.95
2018-03-08T14:56:44.040Z,99756.32
2018-03-08T14:59:10.904Z,99754.63
2018-03-08T15:01:37.768Z,99752.41
2018-03-08T15:04:05.412Z,99748.92
2018-03-08T15:06:31.796Z,99747.08
2018-03-08T15:08:58.959Z,99756.23
2018-03-08T15:11:26.565Z,99750.48
2018-03-08T15:13:53.585Z,99749.33
2018-03-08T15:16:20.822Z,99747.34
2018-03-08T15:18:48.036Z,99750.82
2018-03-08T15:21:15.189Z,99747.00
2018-03-08T15:23:42.241Z,99744.52
2018-03-08T15:26:09.013Z,99752.74
2018-03-08T15:28:36.952Z,99750.09
2018-03-08T15:31:03.907Z,99752.97
2018-03-08T15:33:31.194Z,99759.61
2018-03-08T15:35:58.358Z,99760.94
2018-03-08T15:38:25.916Z,99753.73
2018-03-08T15:40:53.082Z,99768.42
2018-03-08T15:43:20.704Z,99768.00
2018-03-08T15:45:47.787Z,99764.09
2018-03-08T15:48:15.517Z,99769.06
2018-03-08T15:50:42.131Z,99771.32
2018-03-08T15:53:08.869Z,99782.92
2018-03-08T15:55:35.814Z,99788.14
2018-03-08T15:58:02.372Z,99793.29
2018-03-08T16:00:28.922Z,99790.11
2018-03-08T16:02:55.512Z,99793.91
2018-03-08T16:05:21.876Z,99806.53
2018-03-08T16:11:06.334Z,99824.59
2018-03-08T16:13:32.715Z,99824.69
2018-03-08T16:15:59.288Z,99826.92
2018-03-08T16:18:26.584Z,99836.69
2018-03-08T16:20:53.415Z,99832.91
2018-03-08T16:23:20.407Z,99844.17
2018-03-08T16:25:47.112Z,99853.95
2018-03-08T16:28:13.848Z,99857.67
2018-03-08T16:30:40.335Z,99859.98
2018-03-08T16:33:06.713Z,99869.14
2018-03-08T16:35:33.852Z,99867.80
2018-03-08T16:38:00.574Z,99870.66
2018-03-08T16:40:26.970Z,99875.87
2018-03-08T16:42:53.837Z,99872.53
2018-03-08T16:45:20.220Z,99883.38
2018-03-08T16:47:47.148Z,99876.27
2018-03-08T16:50:13.978Z,99882.77
2018-03-08T16:52:40.354Z,99886.16
2018-03-08T16:55:06.977Z,99897.83
2018-03-08T16:57:33.348Z,99890.09
2018-03-08T17:00:00.493Z,99899.48
2018-03-08T17:02:27.131Z,99913.83
2018-03-08T17:04:53.634Z,99907.05
2018-03-08T17:07:20.034Z,99901.05
2018-03-08T17:09:46.860Z,99909.19
2018-03-08T17:12:13.624Z,99917.08
2018-03-08T17:14:41.132Z,99917.25
2018-03-08T17:17:08.181Z,99920.25
2018-03-08T17:19:35.100Z,99921.91
2018-03-08T17:22:02.790Z,99927.83
2018-03-08T17:24:29.793Z,99936.83
2018-03-08T17:26:56.162Z,99947.77
2018-03-08T17:29:22.608Z,99951.28
2018-03-08T17:31:49.309Z,99951.06
2018-03-08T17:34:15.689Z,99956.05
2018-03-08T17:36:42.679Z,99963.77
2018-03-08T17:39:10.695Z,99969.19
2018-03-08T17:41:38.325Z,99971.37
2018-03-08T17:44:04.693Z,99985.46
2018-03-08T17:46:31.974Z,99985.97
2018-03-08T17:48:59.327Z,99999.74
2018-03-08T17:51:26.456Z,100003.25
2018-03-08T17:53:52.827Z,99997.67
2018-03-08T17:56:19.533Z,100012.89
2018-03-08T17:58:45.942Z,100018.09
2018-03-08T18:01:12.667Z,100010.63
2018-03-08T18:03:39.945Z,100020.21
2018-03-08T18:06:07.207Z,100022.28
2018-03-08T18:08:33.603Z,100035.01
2018-03-08T18:10:59.977Z,100033.07
2018-03-08T18:13:26.460Z,100042.23
2018-03-08T18:15:54.025Z,100041.94
2018-03-08T18:18:20.427Z,100053.59
2018-03-08T18:20:46.801Z,100050.67
2018-03-08T18:23:14.137Z,100060.66
2018-03-08T18:25:40.972Z,100073.12
2018-03-08T18:28:07.535Z,100072.27
2018-03-08T18:30:34.881Z,100079.73
2018-03-08T18:33:02.160Z,100083.63
2018-03-08T18:35:29.944Z,100089.70
2018-03-08T18:37:57.107Z,100088.08
2018-03-08T18:40:23.939Z,100092.53
2018-03-08T18:42:51.432Z,100096.42
2018-03-08T18:45:18.410Z,100096.88
2018-03-08T18:47:45.821Z,100105.89
2018-03-08T18:50:13.390Z,100107.97
2018-03-08T18:52:40.694Z,100112.34
2018-03-08T18:55:14.779Z,100112.54
2018-03-08T18:57:41.866Z,100114.57
2018-03-08T19:00:08.728Z,100119.91
2018-03-08T19:02:35.106Z,100122.41
2018-03-08T19:05:02.360Z,100127.88
2018-03-08T19:07:29.119Z,100124.80
2018-03-08T19:09:55.968Z,100132.06
2018-03-08T19:12:22.448Z,100130.64
2018-03-08T19:14:49.636Z,100135.44
2018-03-08T19:17:16.661Z,100143.49
2018-03-08T19:19:43.301Z,100134.12
2018-03-08T19:22:10.452Z,100150.75
2018-03-08T19:24:37.393Z,100156.05
2018-03-08T19:27:05.065Z,100163.52
2018-03-08T19:29:31.445Z,100163.02
2018-03-08T19:31:58.567Z,100171.24
2018-03-08T19:34:25.051Z,100173.42
2018-03-08T19:36:51.453Z,100177.77
2018-03-08T19:39:18.326Z,100175.53
2018-03-08T19:41:45.449Z,100180.09
2018-03-08T19:44:12.336Z,100182.83
2018-03-08T19:46:38.944Z,100190.84
2018-03-08T19:49:05.793Z,100188.73
2018-03-08T19:51:32.616Z,100189.63
2018-03-08T19:53:59.038Z,100192.95
2018-03-08T19:56:25.624Z,100199.08
2018-03-08T19:58:52.245Z,100203.30
2018-03-08T20:01:18.652Z,100206.06
2018-03-08T20:03:45.594Z,100214.98
2018-03-08T20:06:11.997Z,100217.20
2018-03-08T20:08:38.391Z,100217.55
2018-03-08T20:11:05.096Z,100216.54
2018-03-08T20:13:32.229Z,100231.69
2018-03-08T20:15:59.253Z,100230.64
2018-03-08T20:18:26.209Z,100236.53
2018-03-08T20:20:53.008Z,100234.45
2018-03-08T20:23:20.538Z,100238.02
2018-03-08T20:25:47.467Z,100246.12
2018-03-08T20:28:13.859Z,100250.43
2018-03-08T20:30:40.257Z,100250.31
2018-03-08T20:33:06.794Z,100248.48
2018-03-08T20:35:33.211Z,100255.12
2018-03-08T20:37:59.695Z,100260.42
2018-03-08T20:40:26.217Z,100264.10
2018-03-08T20:42:53.058Z,100259.80
2018-03-08T20:45:20.009Z,100263.19
2018-03-08T20:47:47.273Z,100266.90
2018-03-08T20:50:15.055Z,100272.53
2018-03-08T20:52:41.909Z,100276.65
2018-03-08T20:55:08.996Z,100285.11
2018-03-08T20:57:35.819Z,100282.71
2018-03-08T21:00:03.404Z,100287.82
2018-03-08T21:02:30.396Z,100295.23
2018-03-08T21:04:56.784Z,100285.55
2018-03-08T21:07:23.799Z,100293.03
2018-03-08T21:09:50.404Z,100294.66
2018-03-08T21:12:17.283Z,100304.48
2018-03-08T21:14:43.852Z,100300.63
2018-03-08T21:17:10.954Z,100300.37
2018-03-08T21:19:37.324Z,100321.17
2018-03-08T21:22:03.855Z,100318.14
2018-03-08T21:24:30.686Z,100326.44
2018-03-08T21:26:57.474Z,100323.41
2018-03-08T21:29:25.430Z,100329.11
2018-03-08T21:31:52.624Z,100326.83
2018-03-08T21:34:19.231Z,100319.55
2018-03-08T21:36:46.172Z,100336.84
2018-03-08T21:39:13.363Z,100342.94
2018-03-08T21:41:41.059Z,100340.91
2018-03-08T21:44:08.488Z,100339.80
2018-03-08T21:46:35.872Z,100336.05
2018-03-08T21:49:03.016Z,100348.52
2018-03-08T21:51:30.137Z,100353.14
2018-03-08T21:53:57.132Z,100355.37
2018-03-08T21:56:23.961Z,100357.59
2018-03-08T21:58:51.573Z,100361.64
2018-03-08T22:01:18.513Z,100366.95
2018-03-08T22:03:44.923Z,100371.89
2018-03-08T22:06:13.241Z,100371.67
2018-03-08T22:08:40.322Z,100368.48
2018-03-08T22:11:07.343Z,100376.50
2018-03-08T22:13:34.119Z,100377.25
2018-03-08T22:16:02.221Z,100376.89
2018-03-08T22:18:29.410Z,100383.09
2018-03-08T22:20:56.672Z,100384.55
2018-03-08T22:23:23.486Z,100392.85
2018-03-08T22:25:50.821Z,100387.13
2018-03-08T22:28:17.690Z,100387.55
2018-03-08T22:30:45.728Z,100393.52
2018-03-08T22:33:12.326Z,100389.55
2018-03-08T22:35:39.664Z,100395.36
2018-03-08T22:38:07.125Z,100402.59
2018-03-08T22:40:34.226Z,100407.49
2018-03-08T22:43:01.114Z,100399.94
2018-03-08T22:45:28.005Z,100402.11
2018-03-08T22:47:54.384Z,100410.44
2018-03-08T22:50:20.930Z,100409.75
2018-03-08T22:52:47.291Z,100405.34
2018-03-08T22:55:15.041Z,100407.09
2018-03-08T22:57:41.395Z,100409.74
2018-03-08T23:00:08.526Z,100406.29
2018-03-08T23:02:35.041Z,100416.05
2018-03-08T23:05:01.433Z,100419.80
2018-03-08T23:07:28.541Z,100422.91
2018-03-08T23:09:55.101Z,100417.30
2018-03-08T23:12:21.756Z,100423.84
2018-03-08T23:14:48.489Z,100423.05
2018-03-08T23:17:15.030Z,100423.75
2018-03-08T23:19:41.433Z,100428.55
2018-03-08T23:22:07.821Z,100421.50
2018-03-08T23:24:34.308Z,100434.48
2018-03-08T23:27:00.682Z,100429.28
2018-03-08T23:29:27.467Z,100433.73
2018-03-08T23:31:55.093Z,100437.45
2018-03-08T23:34:22.057Z,100439.44
2018-03-08T23:36:48.988Z,100443.87
2018-03-08T23:39:15.826Z,100450.62
2018-03-08T23:41:42.781Z,100443.27
2018-03-08T23:44:09.937Z,100447.99
2018-03-08T23:46:37.308Z,100448.95
2018-03-08T23:49:04.656Z,100446.44
2018-03-08T23:51:31.460Z,100450.05
2018-03-08T23:53:58.203Z,100451.94
2018-03-08T23:56:24.696Z,100452.73
2018-03-08T23:58:52.564Z,100454.78
